Time;durP1;ratioP1;P1;durP2;ratioP2;P2;SDS_P1;SDS_P2;PMS_P1;PMS_P2;Temp;Humidity;BMP_temperature;BMP_pressure;BME280_temperature;BME280_humidity;BME280_pressure;Samples;Min_cycle;Max_cycle;Signal;HPM_P1;HPM_P2
2024/01/07 00:02:22;;;;;;;;;;;;;;;24.32;41.24;100245.38;5031020;28;19913;-61
2024/01/07 00:04:48;;;;;;;;;;;;;;;24.30;41.06;100242.25;5032042;28;19909;-61
2024/01/07 00:07:13;;;;;;;;;;;;;;;24.30;40.90;100252.91;5031747;28;20451;-60
2024/01/07 00:09:38;;;;;;;;;;;;;;;24.30;40.89;100236.94;5029662;28;19963;-61
2024/01/07 00:12:03;;;;;;;;;;;;;;;24.29;41.10;100235.34;5035778;28;20487;-60
2024/01/07 00:14:29;;;;;;;;;;;;;;;24.28;40.84;100242.56;5022184;28;20328;-61
2024/01/07 00:16:54;;;;;;;;;;;;;;;24.28;40.74;100250.56;5024801;28;19913;-61
2024/01/07 00:19:19;;;;;;;;;;;;;;;24.28;40.55;100245.25;5021609;28;19920;-58
2024/01/07 00:21:44;;;;;;;;;;;;;;;24.26;40.63;100258.09;5028078;28;20404;-60
2024/01/07 00:24:09;;;;;;;;;;;;;;;24.12;38.92;100264.75;5033424;28;19995;-61
2024/01/07 00:26:35;;;;;;;;;;;;;;;23.92;37.29;100265.50;5029620;28;20004;-60
2024/01/07 00:29:00;;;;;;;;;;;;;;;23.69;36.08;100263.06;5033386;28;20007;-60
2024/01/07 00:31:25;;;;;;;;;;;;;;;23.59;35.29;100258.09;5028850;28;20026;-60
2024/01/07 00:33:50;;;;;;;;;;;;;;;23.56;35.98;100263.28;5026943;28;20016;-59
2024/01/07 00:36:16;;;;;;;;;;;;;;;23.64;36.63;100267.78;5033392;28;19940;-60
2024/01/07 00:38:41;;;;;;;;;;;;;;;23.69;36.92;100271.06;5022603;28;19919;-61
2024/01/07 00:41:06;;;;;;;;;;;;;;;23.70;37.52;100267.28;5028147;28;19913;-60
2024/01/07 00:43:31;;;;;;;;;;;;;;;23.74;38.30;100267.44;5036060;28;19909;-60
2024/01/07 00:45:57;;;;;;;;;;;;;;;23.74;38.07;100270.88;5029049;28;19909;-60
2024/01/07 00:48:22;;;;;;;;;;;;;;;23.75;38.46;100275.09;5029505;28;19956;-58
2024/01/07 00:50:47;;;;;;;;;;;;;;;23.75;38.62;100275.09;5022661;28;20407;-59
2024/01/07 00:53:12;;;;;;;;;;;;;;;23.76;38.77;100276.66;5029851;28;19955;-60
2024/01/07 00:55:38;;;;;;;;;;;;;;;23.77;39.21;100280.88;5028792;28;20381;-61
2024/01/07 00:58:03;;;;;;;;;;;;;;;23.77;39.14;100282.78;5031669;28;20331;-60
2024/01/07 01:00:29;;;;;;;;;;;;;;;23.76;39.42;100287.31;5022386;28;19913;-60
2024/01/07 01:02:54;;;;;;;;;;;;;;;23.78;39.34;100290.44;5033340;28;19924;-60
2024/01/07 01:05:20;;;;;;;;;;;;;;;23.77;39.65;100302.19;5027450;28;20446;-59
2024/01/07 01:07:45;;;;;;;;;;;;;;;23.78;39.44;100306.44;5034119;28;19913;-60
2024/01/07 01:10:10;;;;;;;;;;;;;;;23.81;39.75;100315.66;5029282;28;19909;-60
2024/01/07 01:12:35;;;;;;;;;;;;;;;23.79;39.83;100307.19;5021037;28;19945;-61
2024/01/07 01:15:01;;;;;;;;;;;;;;;23.79;39.84;100312.50;5022093;28;19909;-60
2024/01/07 01:17:26;;;;;;;;;;;;;;;23.80;40.18;100317.53;5025470;28;19916;-60
2024/01/07 01:19:51;;;;;;;;;;;;;;;23.78;40.28;100319.75;5029663;28;19936;-60
2024/01/07 01:22:16;;;;;;;;;;;;;;;23.80;40.24;100322.06;5028831;28;20399;-60
2024/01/07 01:24:43;;;;;;;;;;;;;;;23.80;40.07;100330.84;5028046;28;20392;-60
2024/01/07 01:27:10;;;;;;;;;;;;;;;23.80;40.30;100330.84;5027638;28;19916;-61
2024/01/07 01:29:35;;;;;;;;;;;;;;;23.81;40.41;100326.31;5032766;28;19909;-60
2024/01/07 01:32:01;;;;;;;;;;;;;;;23.80;40.44;100330.84;5031562;28;19943;-61
2024/01/07 01:34:26;;;;;;;;;;;;;;;23.79;40.38;100328.50;5034086;28;20007;-60
2024/01/07 01:36:51;;;;;;;;;;;;;;;23.78;40.37;100338.38;5035726;28;19995;-60
2024/01/07 01:39:16;;;;;;;;;;;;;;;23.79;40.81;100345.25;5035907;28;19909;-60
2024/01/07 01:41:41;;;;;;;;;;;;;;;23.78;40.63;100338.38;5023394;28;20349;-60
2024/01/07 01:44:07;;;;;;;;;;;;;;;23.79;40.64;100350.59;5019444;28;19937;-59
2024/01/07 01:46:32;;;;;;;;;;;;;;;23.79;40.59;100349.81;5029433;28;19948;-60
2024/01/07 01:48:58;;;;;;;;;;;;;;;23.79;40.80;100352.47;5031025;28;19916;-60
2024/01/07 01:51:23;;;;;;;;;;;;;;;23.79;40.93;100358.59;5022717;28;19917;-58
2024/01/07 01:53:49;;;;;;;;;;;;;;;23.78;40.78;100353.56;5032759;28;19963;-59
2024/01/07 01:56:16;;;;;;;;;;;;;;;23.79;40.88;100366.56;5028303;28;19913;-60
2024/01/07 01:58:42;;;;;;;;;;;;;;;23.78;40.72;100367.69;5031730;28;19909;-60
2024/01/07 02:01:07;;;;;;;;;;;;;;;23.77;40.75;100363.44;5030069;28;19909;-60
2024/01/07 02:03:32;;;;;;;;;;;;;;;23.78;40.89;100366.88;5031806;28;19995;-61
2024/01/07 02:05:58;;;;;;;;;;;;;;;23.77;40.82;100368.75;5034391;28;19915;-61
2024/01/07 02:08:24;;;;;;;;;;;;;;;23.78;41.10;100364.22;5036462;28;19952;-60
2024/01/07 02:10:49;;;;;;;;;;;;;;;23.77;41.02;100371.41;5036154;28;20407;-61
2024/01/07 02:13:15;;;;;;;;;;;;;;;23.78;41.32;100366.88;5021782;28;19913;-61
2024/01/07 02:15:40;;;;;;;;;;;;;;;23.76;41.04;100371.75;5030173;28;20384;-60
2024/01/07 02:18:05;;;;;;;;;;;;;;;23.75;41.08;100370.97;5031203;28;20548;-60
2024/01/07 02:20:30;;;;;;;;;;;;;;;23.74;41.07;100374.72;5037758;28;19920;-61
2024/01/07 02:22:59;;;;;;;;;;;;;;;23.74;41.00;100379.25;5024901;28;19917;-61
2024/01/07 02:25:24;;;;;;;;;;;;;;;23.74;41.30;100377.41;5041593;28;19909;-59
2024/01/07 02:27:49;;;;;;;;;;;;;;;23.74;41.05;100373.94;5029300;28;19962;-60
2024/01/07 02:30:15;;;;;;;;;;;;;;;23.73;41.21;100378.47;5035502;28;19916;-61
2024/01/07 02:32:40;;;;;;;;;;;;;;;23.74;41.38;100382.72;5030310;28;19923;-60
2024/01/07 02:35:05;;;;;;;;;;;;;;;23.73;41.28;100380.38;5033908;28;19916;-59
2024/01/07 02:37:31;;;;;;;;;;;;;;;23.73;41.29;100391.03;5026414;28;19924;-61
2024/01/07 02:39:56;;;;;;;;;;;;;;;23.73;41.28;100377.72;5021475;28;19919;-61
2024/01/07 02:42:21;;;;;;;;;;;;;;;23.72;41.56;100387.56;5023696;28;20281;-60
2024/01/07 02:44:46;;;;;;;;;;;;;;;23.73;41.39;100380.38;5034558;28;19913;-61
2024/01/07 02:47:12;;;;;;;;;;;;;;;23.71;41.47;100388.66;5030429;28;19909;-61
2024/01/07 02:49:37;;;;;;;;;;;;;;;23.70;41.43;100392.44;5026451;28;20035;-60
2024/01/07 02:52:02;;;;;;;;;;;;;;;23.70;41.34;100395.09;5038507;28;19913;-60
2024/01/07 02:54:27;;;;;;;;;;;;;;;23.70;41.73;100400.44;5038386;28;20547;-61
2024/01/07 02:56:53;;;;;;;;;;;;;;;23.70;41.56;100403.09;5030127;28;19908;-62
2024/01/07 02:59:18;;;;;;;;;;;;;;;23.69;41.33;100396.22;5020207;28;20024;-60
2024/01/07 03:01:43;;;;;;;;;;;;;;;23.68;41.48;100396.53;5029556;28;19924;-61
2024/01/07 03:04:13;;;;;;;;;;;;;;;23.69;41.99;100408.72;5029676;28;20023;-60
2024/01/07 03:06:38;;;;;;;;;;;;;;;23.68;41.77;100409.84;5030115;28;20387;-60
2024/01/07 03:09:04;;;;;;;;;;;;;;;23.67;41.54;100409.03;5023627;28;19909;-60
2024/01/07 03:11:29;;;;;;;;;;;;;;;23.66;41.75;100404.81;5024503;28;19909;-61
2024/01/07 03:13:55;;;;;;;;;;;;;;;23.66;41.67;100410.16;5025959;28;19919;-61
2024/01/07 03:16:20;;;;;;;;;;;;;;;23.64;41.72;100407.00;5034445;28;19931;-60
2024/01/07 03:18:46;;;;;;;;;;;;;;;23.65;41.74;100411.25;5017183;28;19940;-61
2024/01/07 03:21:22;;;;;;;;;;;;;;;23.65;41.94;100413.91;5023373;28;19920;-60
2024/01/07 03:23:47;;;;;;;;;;;;;;;23.64;41.87;100401.69;5044886;22;20399;-62
2024/01/07 03:26:13;;;;;;;;;;;;;;;23.65;41.83;100410.47;5049837;28;19991;-61
2024/01/07 03:28:38;;;;;;;;;;;;;;;23.63;41.75;100409.97;5058642;28;19999;-63
2024/01/07 03:31:14;;;;;;;;;;;;;;;23.64;41.93;100411.56;5065083;28;20326;-61
2024/01/07 03:33:39;;;;;;;;;;;;;;;23.61;41.91;100407.66;5058855;28;19908;-61
2024/01/07 03:36:08;;;;;;;;;;;;;;;23.63;41.99;100412.63;5055715;28;19916;-63
2024/01/07 03:38:33;;;;;;;;;;;;;;;23.61;41.70;100412.97;5052557;28;19993;-62
2024/01/07 03:40:59;;;;;;;;;;;;;;;23.61;41.96;100412.19;5059610;28;20315;-62
2024/01/07 03:43:24;;;;;;;;;;;;;;;23.60;42.11;100416.72;5063062;28;20007;-62
2024/01/07 03:45:49;;;;;;;;;;;;;;;23.60;41.71;100422.03;5059035;28;20054;-63
2024/01/07 03:48:14;;;;;;;;;;;;;;;23.58;42.06;100424.25;5054619;28;19995;-62
2024/01/07 03:50:40;;;;;;;;;;;;;;;23.58;42.09;100421.59;5061046;28;20007;-62
2024/01/07 03:53:05;;;;;;;;;;;;;;;23.58;42.06;100420.78;5062898;28;19924;-62
2024/01/07 03:55:30;;;;;;;;;;;;;;;23.59;41.86;100431.13;5058546;28;20360;-61
2024/01/07 03:57:55;;;;;;;;;;;;;;;23.58;42.11;100432.22;5052671;28;20401;-64
2024/01/07 04:00:20;;;;;;;;;;;;;;;23.58;41.99;100436.75;5046852;28;19934;-62
2024/01/07 04:02:46;;;;;;;;;;;;;;;23.58;41.90;100439.44;5061269;28;20427;-63
2024/01/07 04:05:12;;;;;;;;;;;;;;;23.56;42.07;100437.06;5063916;28;19908;-61
2024/01/07 04:07:38;;;;;;;;;;;;;;;23.55;42.10;100440.06;5056844;28;19912;-62
2024/01/07 04:10:03;;;;;;;;;;;;;;;23.56;42.11;100446.97;5062759;28;19915;-61
2024/01/07 04:12:28;;;;;;;;;;;;;;;23.53;42.11;100443.03;5055968;28;19965;-62
2024/01/07 04:14:53;;;;;;;;;;;;;;;23.54;42.12;100451.78;5060613;28;19908;-62
2024/01/07 04:17:19;;;;;;;;;;;;;;;23.54;41.93;100454.47;5062192;28;19987;-62
2024/01/07 04:19:44;;;;;;;;;;;;;;;23.52;42.21;100462.75;5061157;28;19924;-62
2024/01/07 04:22:09;;;;;;;;;;;;;;;23.54;42.23;100465.91;5060332;28;19918;-61
2024/01/07 04:24:35;;;;;;;;;;;;;;;23.52;42.03;100462.00;5055879;28;19955;-61
2024/01/07 04:27:00;;;;;;;;;;;;;;;23.50;42.17;100459.63;5057909;28;20368;-61
2024/01/07 04:29:28;;;;;;;;;;;;;;;23.51;41.97;100469.19;5060606;28;20352;-61
2024/01/07 04:31:53;;;;;;;;;;;;;;;23.51;42.23;100466.53;5063409;28;19934;-62
2024/01/07 04:34:18;;;;;;;;;;;;;;;23.52;42.36;100481.38;5058266;28;20364;-64
2024/01/07 04:36:44;;;;;;;;;;;;;;;23.50;42.18;100472.94;5054407;28;20477;-62
2024/01/07 04:39:09;;;;;;;;;;;;;;;23.49;42.16;100474.03;5054894;28;20396;-63
2024/01/07 04:41:35;;;;;;;;;;;;;;;23.48;42.19;100472.50;5058575;28;19924;-62
2024/01/07 04:44:00;;;;;;;;;;;;;;;23.49;42.21;100473.25;5065212;28;19973;-62
2024/01/07 04:46:25;;;;;;;;;;;;;;;23.47;42.09;100470.91;5056045;28;19908;-62
2024/01/07 04:48:50;;;;;;;;;;;;;;;23.48;42.05;100480.47;5056373;28;19916;-63
2024/01/07 04:51:15;;;;;;;;;;;;;;;23.46;42.46;100485.31;5055535;28;19923;-64
2024/01/07 04:53:41;;;;;;;;;;;;;;;23.47;42.51;100475.47;5054280;28;20360;-62
2024/01/07 04:56:06;;;;;;;;;;;;;;;23.46;42.23;100485.31;5046159;28;20284;-62
2024/01/07 04:58:31;;;;;;;;;;;;;;;23.45;42.39;100482.97;5058804;28;20344;-63
2024/01/07 05:00:56;;;;;;;;;;;;;;;23.44;42.08;100487.50;5056444;28;20500;-60
2024/01/07 05:03:22;;;;;;;;;;;;;;;23.46;42.48;100495.97;5060690;28;19912;-62
2024/01/07 05:05:47;;;;;;;;;;;;;;;23.45;42.31;100504.25;5058675;28;19962;-62
2024/01/07 05:08:12;;;;;;;;;;;;;;;23.43;42.34;100504.56;5053438;28;20304;-62
2024/01/07 05:10:37;;;;;;;;;;;;;;;23.42;42.11;100505.66;5059938;28;20360;-62
2024/01/07 05:13:05;;;;;;;;;;;;;;;23.42;42.46;100516.31;5056242;28;20035;-62
2024/01/07 05:15:31;;;;;;;;;;;;;;;23.41;42.17;100514.75;5055194;28;19909;-63
2024/01/07 05:17:56;;;;;;;;;;;;;;;23.41;42.39;100514.75;5064407;28;20385;-62
2024/01/07 05:20:21;;;;;;;;;;;;;;;23.40;42.26;100518.50;5048551;28;19924;-63
2024/01/07 05:22:46;;;;;;;;;;;;;;;23.41;42.43;100513.94;5061170;28;19916;-62
2024/01/07 05:25:12;;;;;;;;;;;;;;;23.40;42.17;100518.50;5058072;28;20007;-63
2024/01/07 05:27:37;;;;;;;;;;;;;;;23.39;42.32;100524.91;5062630;28;19924;-65
2024/01/07 05:30:03;;;;;;;;;;;;;;;23.38;42.37;100526.00;5062471;28;19908;-63
2024/01/07 05:32:28;;;;;;;;;;;;;;;23.39;42.28;100526.81;5065140;28;19908;-63
2024/01/07 05:34:53;;;;;;;;;;;;;;;23.38;42.53;100535.88;5057917;28;19954;-62
2024/01/07 05:37:18;;;;;;;;;;;;;;;23.36;42.47;100528.22;5051375;28;20604;-63
2024/01/07 05:39:44;;;;;;;;;;;;;;;23.36;42.50;100533.53;5057643;28;19935;-62
2024/01/07 05:42:09;;;;;;;;;;;;;;;23.36;42.46;100532.72;5063992;28;19916;-63
2024/01/07 05:44:35;;;;;;;;;;;;;;;23.36;42.53;100544.19;5065144;28;19908;-63
2024/01/07 05:47:00;;;;;;;;;;;;;;;23.35;42.56;100544.47;5062353;28;20362;-63
2024/01/07 05:49:25;;;;;;;;;;;;;;;23.37;42.30;100544.94;5062583;28;19912;-62
2024/01/07 05:51:50;;;;;;;;;;;;;;;23.34;42.44;100541.03;5061177;28;19995;-63
2024/01/07 05:54:15;;;;;;;;;;;;;;;23.35;42.41;100544.47;5059077;28;20328;-63
2024/01/07 05:56:41;;;;;;;;;;;;;;;23.33;42.48;100547.44;5065239;28;21512;-65
2024/01/07 05:59:06;;;;;;;;;;;;;;;23.32;42.49;100547.75;5053259;28;19924;-64
2024/01/07 06:01:32;;;;;;;;;;;;;;;23.33;42.67;100550.09;5063691;28;19912;-62
2024/01/07 06:03:57;;;;;;;;;;;;;;;23.31;42.47;100562.97;5055141;28;20013;-62
2024/01/07 06:06:22;;;;;;;;;;;;;;;23.32;42.52;100558.41;5058474;28;20564;-63
2024/01/07 06:08:48;;;;;;;;;;;;;;;23.31;42.54;100562.97;5059645;28;20292;-62
2024/01/07 06:11:18;;;;;;;;;;;;;;;23.30;42.64;100566.69;5056580;28;19939;-64
2024/01/07 06:13:43;;;;;;;;;;;;;;;23.30;42.68;100571.25;5053092;28;19909;-62
2024/01/07 06:16:09;;;;;;;;;;;;;;;23.29;42.40;100573.09;5056959;28;19912;-63
2024/01/07 06:18:34;;;;;;;;;;;;;;;23.29;42.73;100573.09;5049636;28;19916;-62
2024/01/07 06:20:59;;;;;;;;;;;;;;;23.28;42.51;100578.72;5055768;28;19916;-62
2024/01/07 06:23:24;;;;;;;;;;;;;;;23.28;42.61;100578.72;5052553;28;19965;-62
2024/01/07 06:25:49;;;;;;;;;;;;;;;23.26;42.65;100576.38;5059952;28;19988;-63
2024/01/07 06:28:15;;;;;;;;;;;;;;;23.27;42.64;100571.84;5059588;28;19999;-63
2024/01/07 06:30:40;;;;;;;;;;;;;;;23.25;42.50;100582.81;5064959;28;19912;-62
2024/01/07 06:33:05;;;;;;;;;;;;;;;23.28;42.53;100592.03;5053853;28;20003;-62
2024/01/07 06:35:30;;;;;;;;;;;;;;;23.25;42.39;100596.09;5054955;28;19995;-62
2024/01/07 06:37:55;;;;;;;;;;;;;;;23.25;42.50;100595.31;5049215;28;19913;-63
2024/01/07 06:40:22;;;;;;;;;;;;;;;23.24;42.71;100604.38;5051716;28;19970;-62
2024/01/07 06:42:48;;;;;;;;;;;;;;;23.23;42.43;100600.97;5057183;28;19924;-61
2024/01/07 06:45:14;;;;;;;;;;;;;;;23.24;42.68;100599.88;5056062;28;19908;-61
2024/01/07 06:47:40;;;;;;;;;;;;;;;23.24;42.57;100605.19;5055900;28;19919;-62
2024/01/07 06:50:05;;;;;;;;;;;;;;;23.24;42.55;100612.38;5062209;28;19916;-60
2024/01/07 06:52:31;;;;;;;;;;;;;;;23.23;42.60;100613.47;5061666;28;20004;-62
2024/01/07 06:54:56;;;;;;;;;;;;;;;23.23;42.59;100621.47;5044916;28;20094;-62
2024/01/07 06:57:21;;;;;;;;;;;;;;;23.22;42.46;100623.31;5051930;28;19962;-61
2024/01/07 06:59:46;;;;;;;;;;;;;;;23.24;42.41;100625.69;5058524;28;19912;-62
2024/01/07 07:02:12;;;;;;;;;;;;;;;23.26;42.68;100628.84;5051487;28;20002;-61
2024/01/07 07:04:37;;;;;;;;;;;;;;;23.22;41.35;100633.97;5057796;28;20019;-61
2024/01/07 07:07:02;;;;;;;;;;;;;;;23.24;41.96;100646.97;5062429;28;19923;-60
2024/01/07 07:09:28;;;;;;;;;;;;;;;23.24;42.01;100636.31;5052251;28;19917;-60
2024/01/07 07:11:53;;;;;;;;;;;;;;;23.23;40.27;100654.19;5050369;28;19912;-59
2024/01/07 07:14:19;;;;;;;;;;;;;;;23.21;38.14;100648.38;5055741;28;20395;-61
2024/01/07 07:16:44;;;;;;;;;;;;;;;23.19;39.35;100653.22;5050719;28;19915;-61
2024/01/07 07:19:14;;;;;;;;;;;;;;;23.17;39.04;100657.25;5062707;28;20410;-59
2024/01/07 07:21:39;;;;;;;;;;;;;;;23.17;39.67;100658.03;5054770;28;19920;-61
2024/01/07 07:24:05;;;;;;;;;;;;;;;23.16;38.70;100658.31;5057793;28;19912;-63
2024/01/07 07:26:30;;;;;;;;;;;;;;;23.14;40.10;100661.31;5057118;28;19908;-61
2024/01/07 07:28:55;;;;;;;;;;;;;;;23.14;39.88;100661.31;5060613;28;20336;-61
2024/01/07 07:31:20;;;;;;;;;;;;;;;23.14;40.01;100663.97;5054158;28;20012;-62
2024/01/07 07:33:45;;;;;;;;;;;;;;;23.12;40.29;100658.16;5058733;28;19974;-60
2024/01/07 07:36:11;;;;;;;;;;;;;;;23.14;40.46;100658.66;5052487;28;19917;-61
2024/01/07 07:38:36;;;;;;;;;;;;;;;23.16;40.39;100667.09;5050537;28;19964;-61
2024/01/07 07:41:01;;;;;;;;;;;;;;;23.16;40.57;100667.09;5053241;28;19920;-61
2024/01/07 07:43:26;;;;;;;;;;;;;;;23.18;40.50;100680.88;5056732;28;19916;-61
2024/01/07 07:45:52;;;;;;;;;;;;;;;23.19;40.94;100682.50;5049304;28;20351;-59
2024/01/07 07:48:18;;;;;;;;;;;;;;;23.21;41.15;100690.94;5052566;28;19920;-61
2024/01/07 07:50:43;;;;;;;;;;;;;;;23.21;41.25;100701.59;5060776;28;19916;-60
2024/01/07 07:53:08;;;;;;;;;;;;;;;23.23;41.40;100701.28;5062514;28;19933;-61
2024/01/07 07:55:33;;;;;;;;;;;;;;;23.22;41.54;100708.47;5046036;28;19917;-63
2024/01/07 07:57:59;;;;;;;;;;;;;;;23.22;41.74;100711.13;5053217;28;19909;-59
2024/01/07 08:00:24;;;;;;;;;;;;;;;23.23;41.79;100710.06;5053761;28;19909;-62
2024/01/07 08:02:49;;;;;;;;;;;;;;;23.23;41.99;100712.72;5062748;28;19912;-61
2024/01/07 08:05:14;;;;;;;;;;;;;;;23.24;41.78;100710.81;5061836;28;19909;-60
2024/01/07 08:07:40;;;;;;;;;;;;;;;23.25;42.01;100718.50;5060149;28;19931;-60
2024/01/07 08:10:05;;;;;;;;;;;;;;;23.26;42.10;100714.75;5056418;28;19961;-58
2024/01/07 08:12:31;;;;;;;;;;;;;;;23.28;42.16;100725.09;5059609;28;20019;-61
2024/01/07 08:14:56;;;;;;;;;;;;;;;23.27;42.15;100723.53;5048513;28;19912;-62
2024/01/07 08:17:21;;;;;;;;;;;;;;;23.27;42.17;100727.00;5047339;28;20056;-61
2024/01/07 08:19:46;;;;;;;;;;;;;;;23.29;42.16;100726.66;5062290;28;19948;-63
2024/01/07 08:22:12;;;;;;;;;;;;;;;23.27;42.07;100727.00;5054981;28;19951;-61
2024/01/07 08:24:37;;;;;;;;;;;;;;;23.29;42.16;100732.78;5059211;28;19971;-61
2024/01/07 08:27:03;;;;;;;;;;;;;;;23.29;42.42;100730.13;5049291;28;19982;-62
2024/01/07 08:29:28;;;;;;;;;;;;;;;23.37;42.34;100745.34;5038993;28;19932;-62
2024/01/07 08:31:53;;;;;;;;;;;;;;;23.40;42.20;100744.75;5040170;28;20344;-61
2024/01/07 08:34:18;;;;;;;;;;;;;;;23.42;42.30;100745.22;5039451;28;20090;-62
2024/01/07 08:36:44;;;;;;;;;;;;;;;23.41;42.40;100743.66;5039281;28;20002;-52
2024/01/07 08:39:10;;;;;;;;;;;;;;;23.43;42.33;100752.09;5039086;28;19952;-58
2024/01/07 08:41:35;;;;;;;;;;;;;;;23.45;42.38;100754.44;5039595;28;19928;-61
2024/01/07 08:44:00;;;;;;;;;;;;;;;23.46;42.45;100759.47;5039994;28;20040;-58
2024/01/07 08:46:26;;;;;;;;;;;;;;;23.49;42.52;100755.41;5039171;28;19921;-62
2024/01/07 08:48:51;;;;;;;;;;;;;;;23.51;42.74;100759.34;5039420;28;19912;-56
2024/01/07 08:51:16;;;;;;;;;;;;;;;23.55;42.76;100756.88;5037864;28;19920;-57
2024/01/07 08:53:42;;;;;;;;;;;;;;;23.52;40.12;100757.47;5038184;28;19913;-59
2024/01/07 08:56:07;;;;;;;;;;;;;;;23.45;39.24;100763.25;5044196;28;20395;-59
2024/01/07 08:58:32;;;;;;;;;;;;;;;23.43;39.71;100762.75;5043945;28;19920;-58
2024/01/07 09:00:58;;;;;;;;;;;;;;;23.44;40.46;100764.34;5042496;28;19982;-60
2024/01/07 09:03:23;;;;;;;;;;;;;;;23.48;41.33;100767.97;5044509;28;20705;-53
2024/01/07 09:05:48;;;;;;;;;;;;;;;23.49;41.32;100774.84;5044703;28;20423;-58
2024/01/07 09:08:14;;;;;;;;;;;;;;;23.51;41.41;100775.31;5043883;28;19924;-60
2024/01/07 09:10:39;;;;;;;;;;;;;;;23.55;41.82;100780.84;5044719;28;19928;-60
2024/01/07 09:13:05;;;;;;;;;;;;;;;23.56;41.89;100793.81;5043608;28;19944;-62
2024/01/07 09:15:30;;;;;;;;;;;;;;;23.57;41.56;100783.97;5044068;28;19912;-60
2024/01/07 09:17:55;;;;;;;;;;;;;;;23.57;42.22;100790.09;5043428;28;20422;-56
2024/01/07 09:20:20;;;;;;;;;;;;;;;23.54;39.23;100796.00;5042532;28;19917;-60
2024/01/07 09:22:46;;;;;;;;;;;;;;;23.51;41.12;100801.94;5037259;28;19925;-60
2024/01/07 09:25:11;;;;;;;;;;;;;;;23.52;41.22;100808.06;5065572;22;19920;-62
2024/01/07 09:27:36;;;;;;;;;;;;;;;23.51;40.96;100803.81;5062284;28;19916;-62
2024/01/07 09:30:02;;;;;;;;;;;;;;;23.51;41.10;100811.81;5061525;28;20614;-63
2024/01/07 09:32:27;;;;;;;;;;;;;;;23.49;41.10;100806.78;5064047;28;19921;-61
2024/01/07 09:34:53;;;;;;;;;;;;;;;23.50;41.39;100820.88;5064444;28;19993;-62
2024/01/07 09:37:18;;;;;;;;;;;;;;;23.47;41.29;100808.97;5063778;28;20002;-62
2024/01/07 09:39:44;;;;;;;;;;;;;;;23.47;41.29;100811.63;5062548;28;19974;-62
2024/01/07 09:42:13;;;;;;;;;;;;;;;23.45;41.52;100813.00;5063844;28;19958;-62
2024/01/07 09:44:39;;;;;;;;;;;;;;;23.44;41.54;100812.25;5063526;28;19912;-62
2024/01/07 09:47:05;;;;;;;;;;;;;;;23.42;41.14;100813.66;5063875;28;19934;-63
2024/01/07 09:49:31;;;;;;;;;;;;;;;23.42;41.53;100825.06;5064720;28;20452;-63
2024/01/07 09:51:59;;;;;;;;;;;;;;;23.41;41.39;100818.16;5064818;28;19999;-62
2024/01/07 09:54:24;;;;;;;;;;;;;;;23.40;40.70;100816.59;5060953;28;19923;-62
2024/01/07 09:56:51;;;;;;;;;;;;;;;23.40;40.68;100827.25;5062754;28;19920;-61
2024/01/07 09:59:17;;;;;;;;;;;;;;;23.40;41.14;100821.94;5063747;28;20397;-62
2024/01/07 10:01:43;;;;;;;;;;;;;;;23.38;40.73;100813.44;5060911;28;19920;-62
2024/01/07 10:04:09;;;;;;;;;;;;;;;23.37;40.27;100824.41;5062569;28;19919;-62
2024/01/07 10:06:34;;;;;;;;;;;;;;;23.35;40.18;100832.69;5064195;28;20303;-62
2024/01/07 10:08:59;;;;;;;;;;;;;;;23.34;39.66;100820.47;5062882;28;19942;-61
2024/01/07 10:11:24;;;;;;;;;;;;;;;23.34;39.52;100825.03;5062610;28;20420;-61
2024/01/07 10:13:51;;;;;;;;;;;;;;;23.33;39.22;100826.88;5064765;28;20378;-62
2024/01/07 10:16:17;;;;;;;;;;;;;;;23.33;39.31;100839.41;5063650;28;20430;-62
2024/01/07 10:18:42;;;;;;;;;;;;;;;23.32;39.67;100841.28;5064527;28;20043;-63
2024/01/07 10:21:07;;;;;;;;;;;;;;;23.31;39.05;100844.25;5063258;28;19922;-63
2024/01/07 10:23:33;;;;;;;;;;;;;;;23.31;39.32;100834.41;5063942;28;20070;-62
2024/01/07 10:25:58;;;;;;;;;;;;;;;23.32;39.70;100830.63;5064628;28;19920;-59
2024/01/07 10:28:23;;;;;;;;;;;;;;;23.34;39.87;100833.00;5063962;28;20749;-60
2024/01/07 10:30:50;;;;;;;;;;;;;;;23.33;40.56;100826.88;5062898;28;19928;-62
2024/01/07 10:33:16;;;;;;;;;;;;;;;23.37;39.85;100832.38;5062667;28;19908;-60
2024/01/07 10:35:43;;;;;;;;;;;;;;;23.38;39.92;100829.41;5062396;28;20397;-60
2024/01/07 10:38:09;;;;;;;;;;;;;;;23.40;39.39;100826.47;5063917;28;19908;-62
2024/01/07 10:40:34;;;;;;;;;;;;;;;23.41;39.93;100823.50;5062182;28;19927;-61
2024/01/07 10:42:59;;;;;;;;;;;;;;;23.41;39.90;100838.66;5064565;28;19916;-60
2024/01/07 10:45:24;;;;;;;;;;;;;;;23.43;39.53;100841.81;5063511;28;19912;-60
2024/01/07 10:47:53;;;;;;;;;;;;;;;23.39;39.84;100830.22;5062774;28;19917;-57
2024/01/07 10:50:18;;;;;;;;;;;;;;;23.36;39.27;100831.59;5061729;28;20522;-60
2024/01/07 10:52:48;;;;;;;;;;;;;;;23.35;40.31;100847.88;5059183;28;20004;-62
2024/01/07 10:55:14;;;;;;;;;;;;;;;23.36;40.31;100847.56;5061032;28;19912;-61
2024/01/07 10:57:44;;;;;;;;;;;;;;;23.37;40.55;100845.69;5061688;28;19927;-61
2024/01/07 11:00:18;;;;;;;;;;;;;;;23.34;40.56;100839.09;5061079;28;19995;-60
2024/01/07 11:03:04;;;;;;;;;;;;;;;23.35;40.81;100838.00;5062693;28;19916;-62
2024/01/07 11:05:50;;;;;;;;;;;;;;;23.36;40.98;100847.56;5062507;28;19912;-61
2024/01/07 11:08:34;;;;;;;;;;;;;;;23.35;41.30;100847.88;5062792;28;19962;-60
2024/01/07 11:11:17;;;;;;;;;;;;;;;23.36;41.41;100844.91;5062718;28;20310;-61
2024/01/07 11:13:43;;;;;;;;;;;;;;;23.36;41.41;100846.78;5061802;28;20269;-62
2024/01/07 11:16:09;;;;;;;;;;;;;;;23.36;41.40;100852.91;5061705;28;20006;-61
2024/01/07 11:18:37;;;;;;;;;;;;;;;23.37;41.63;100851.81;5061241;28;20346;-61
2024/01/07 11:21:03;;;;;;;;;;;;;;;23.36;41.67;100855.56;5060722;28;19946;-61
2024/01/07 11:23:30;;;;;;;;;;;;;;;23.36;41.78;100847.56;5061718;28;20625;-60
2024/01/07 11:25:56;;;;;;;;;;;;;;;23.37;41.86;100851.81;5061204;28;19920;-61
2024/01/07 11:28:41;;;;;;;;;;;;;;;23.37;41.95;100857.13;5061808;28;19931;-61
2024/01/07 11:31:07;;;;;;;;;;;;;;;23.37;42.14;100856.34;5062423;28;19913;-61
2024/01/07 11:33:34;;;;;;;;;;;;;;;23.38;40.81;100849.94;5061140;28;19963;-60
2024/01/07 11:36:01;;;;;;;;;;;;;;;23.36;39.69;100847.56;5059351;28;19955;-62
2024/01/07 11:38:26;;;;;;;;;;;;;;;23.36;39.77;100852.91;5060649;28;21458;-62
2024/01/07 11:40:52;;;;;;;;;;;;;;;23.37;40.21;100849.16;5061376;28;19924;-61
2024/01/07 11:43:17;;;;;;;;;;;;;;;23.37;40.46;100854.47;5061549;28;19912;-61
2024/01/07 11:45:42;;;;;;;;;;;;;;;23.37;40.54;100849.16;5060088;28;19999;-63
2024/01/07 11:48:08;;;;;;;;;;;;;;;23.37;40.07;100859.78;5059238;28;19943;-63
2024/01/07 11:50:35;;;;;;;;;;;;;;;23.38;40.89;100848.03;5060834;28;19920;-61
2024/01/07 11:53:00;;;;;;;;;;;;;;;23.38;39.93;100855.25;5059185;28;19920;-61
2024/01/07 11:55:25;;;;;;;;;;;;;;;23.37;40.16;100851.00;5060762;28;19923;-59
2024/01/07 11:57:51;;;;;;;;;;;;;;;23.35;39.96;100856.63;5060243;28;19927;-60
2024/01/07 12:00:17;;;;;;;;;;;;;;;23.35;40.23;100851.31;5059214;28;19912;-61
2024/01/07 12:02:42;;;;;;;;;;;;;;;23.36;41.14;100854.75;5062052;28;19931;-62
2024/01/07 12:05:07;;;;;;;;;;;;;;;23.34;40.97;100860.38;5060483;28;20457;-64
2024/01/07 12:07:33;;;;;;;;;;;;;;;23.34;40.95;100856.97;5060275;28;19927;-60
2024/01/07 12:09:58;;;;;;;;;;;;;;;23.32;40.76;100843.94;5060508;28;19920;-61
2024/01/07 12:12:24;;;;;;;;;;;;;;;23.33;40.81;100855.38;5060964;28;19916;-60
2024/01/07 12:14:49;;;;;;;;;;;;;;;23.31;40.48;100852.22;5060358;28;19974;-61
2024/01/07 12:17:17;;;;;;;;;;;;;;;23.29;40.47;100849.88;5059418;28;19916;-61
2024/01/07 12:19:43;;;;;;;;;;;;;;;23.29;40.48;100863.19;5059608;28;19915;-61
2024/01/07 12:22:08;;;;;;;;;;;;;;;23.28;40.73;100858.94;5056377;28;20268;-61
2024/01/07 12:24:34;;;;;;;;;;;;;;;23.25;40.14;100862.19;5060310;28;19920;-62
2024/01/07 12:27:06;;;;;;;;;;;;;;;23.26;40.42;100870.97;5059747;28;19920;-59
2024/01/07 12:29:31;;;;;;;;;;;;;;;23.25;40.17;100872.84;5059741;28;19916;-60